sensor_id;sensor_type;location;lat;lon;timestamp;pressure;altitude;pressure_sealevel;temperature;humidity
33506;BME280;19843;51.040;13.782;2023-07-02T00:02:22;99268.31;;;21.01;73.93
33506;BME280;19843;51.040;13.782;2023-07-02T00:04:50;99259.03;;;20.80;73.92
33506;BME280;19843;51.040;13.782;2023-07-02T00:07:18;99263.75;;;20.87;74.28
33506;BME280;19843;51.040;13.782;2023-07-02T00:09:45;99259.09;;;20.77;74.43
33506;BME280;19843;51.040;13.782;2023-07-02T00:12:14;99258.75;;;21.11;72.89
33506;BME280;19843;51.040;13.782;2023-07-02T00:14:41;99257.44;;;20.59;76.32
33506;BME280;19843;51.040;13.782;2023-07-02T00:17:09;99260.41;;;20.92;73.90
33506;BME280;19843;51.040;13.782;2023-07-02T00:19:38;99265.94;;;20.79;73.38
33506;BME280;19843;51.040;13.782;2023-07-02T00:22:09;99260.66;;;19.48;80.07
33506;BME280;19843;51.040;13.782;2023-07-02T00:24:36;99266.56;;;19.30;80.80
33506;BME280;19843;51.040;13.782;2023-07-02T00:27:04;99270.63;;;19.29;81.45
33506;BME280;19843;51.040;13.782;2023-07-02T00:29:31;99272.53;;;19.35;81.09
33506;BME280;19843;51.040;13.782;2023-07-02T00:31:59;99265.66;;;19.36;81.70
33506;BME280;19843;51.040;13.782;2023-07-02T00:34:26;99267.00;;;19.28;81.41
33506;BME280;19843;51.040;13.782;2023-07-02T00:36:54;99254.63;;;19.18;81.94
33506;BME280;19843;51.040;13.782;2023-07-02T00:39:23;99264.53;;;19.30;81.86
33506;BME280;19843;51.040;13.782;2023-07-02T00:41:50;99265.03;;;19.25;81.67
33506;BME280;19843;51.040;13.782;2023-07-02T00:44:18;99261.22;;;19.35;81.77
33506;BME280;19843;51.040;13.782;2023-07-02T00:46:49;99267.91;;;19.49;81.01
33506;BME280;19843;51.040;13.782;2023-07-02T00:49:18;99264.53;;;19.57;80.25
33506;BME280;19843;51.040;13.782;2023-07-02T00:51:45;99277.50;;;19.55;81.65
33506;BME280;19843;51.040;13.782;2023-07-02T00:54:13;99278.09;;;19.42;81.96
33506;BME280;19843;51.040;13.782;2023-07-02T00:56:42;99267.75;;;19.56;81.41
33506;BME280;19843;51.040;13.782;2023-07-02T00:59:09;99267.34;;;19.57;80.83
33506;BME280;19843;51.040;13.782;2023-07-02T01:01:37;99275.31;;;19.39;81.81
33506;BME280;19843;51.040;13.782;2023-07-02T01:04:06;99264.75;;;19.43;82.23
33506;BME280;19843;51.040;13.782;2023-07-02T01:06:36;99266.41;;;19.67;80.81
33506;BME280;19843;51.040;13.782;2023-07-02T01:09:07;99266.78;;;19.42;82.07
33506;BME280;19843;51.040;13.782;2023-07-02T01:11:36;99271.59;;;19.18;82.79
33506;BME280;19843;51.040;13.782;2023-07-02T01:14:08;99269.34;;;19.33;82.46
33506;BME280;19843;51.040;13.782;2023-07-02T01:16:37;99267.72;;;19.59;81.21
33506;BME280;19843;51.040;13.782;2023-07-02T01:19:11;99261.38;;;19.52;80.99
33506;BME280;19843;51.040;13.782;2023-07-02T01:21:40;99264.00;;;19.39;81.50
33506;BME280;19843;51.040;13.782;2023-07-02T01:24:08;99253.91;;;19.65;80.56
33506;BME280;19843;51.040;13.782;2023-07-02T01:26:35;99254.72;;;19.38;82.31
33506;BME280;19843;51.040;13.782;2023-07-02T01:29:14;99261.50;;;19.44;81.85
33506;BME280;19843;51.040;13.782;2023-07-02T01:31:41;99257.31;;;19.53;82.39
33506;BME280;19843;51.040;13.782;2023-07-02T01:34:09;99258.22;;;19.46;81.88
33506;BME280;19843;51.040;13.782;2023-07-02T01:36:37;99256.09;;;19.54;81.43
33506;BME280;19843;51.040;13.782;2023-07-02T01:39:06;99262.34;;;19.68;80.69
33506;BME280;19843;51.040;13.782;2023-07-02T01:41:37;99255.13;;;19.37;82.85
33506;BME280;19843;51.040;13.782;2023-07-02T01:44:05;99258.16;;;19.50;82.21
33506;BME280;19843;51.040;13.782;2023-07-02T01:46:32;99255.53;;;19.66;80.58
33506;BME280;19843;51.040;13.782;2023-07-02T01:49:00;99255.09;;;19.40;82.48
33506;BME280;19843;51.040;13.782;2023-07-02T01:51:27;99262.59;;;19.51;82.31
33506;BME280;19843;51.040;13.782;2023-07-02T01:53:55;99258.97;;;19.50;82.50
33506;BME280;19843;51.040;13.782;2023-07-02T01:56:23;99260.47;;;19.58;81.88
33506;BME280;19843;51.040;13.782;2023-07-02T01:58:51;99261.44;;;19.75;80.84
33506;BME280;19843;51.040;13.782;2023-07-02T02:01:19;99263.59;;;19.13;83.48
33506;BME280;19843;51.040;13.782;2023-07-02T02:03:46;99267.16;;;19.44;83.44
33506;BME280;19843;51.040;13.782;2023-07-02T02:06:14;99264.63;;;19.50;82.42
33506;BME280;19843;51.040;13.782;2023-07-02T02:08:41;99263.69;;;19.06;85.36
33506;BME280;19843;51.040;13.782;2023-07-02T02:11:09;99262.41;;;19.38;88.29
33506;BME280;19843;51.040;13.782;2023-07-02T02:13:37;99275.63;;;18.90;90.78
33506;BME280;19843;51.040;13.782;2023-07-02T02:16:05;99272.50;;;18.81;90.60
33506;BME280;19843;51.040;13.782;2023-07-02T02:18:33;99265.63;;;18.82;90.71
33506;BME280;19843;51.040;13.782;2023-07-02T02:21:00;99280.19;;;18.81;92.75
33506;BME280;19843;51.040;13.782;2023-07-02T02:23:28;99282.44;;;18.93;92.21
33506;BME280;19843;51.040;13.782;2023-07-02T02:25:55;99288.13;;;18.89;91.84
33506;BME280;19843;51.040;13.782;2023-07-02T02:28:23;99279.69;;;19.16;91.38
33506;BME280;19843;51.040;13.782;2023-07-02T02:30:52;99278.16;;;19.12;92.23
33506;BME280;19843;51.040;13.782;2023-07-02T02:33:20;99277.09;;;19.29;91.87
33506;BME280;19843;51.040;13.782;2023-07-02T02:35:48;99285.41;;;19.13;90.63
33506;BME280;19843;51.040;13.782;2023-07-02T02:38:15;99275.34;;;18.81;93.99
33506;BME280;19843;51.040;13.782;2023-07-02T02:40:43;99283.38;;;18.83;93.27
33506;BME280;19843;51.040;13.782;2023-07-02T02:43:11;99285.47;;;18.79;95.14
33506;BME280;19843;51.040;13.782;2023-07-02T02:45:38;99285.13;;;18.73;94.97
33506;BME280;19843;51.040;13.782;2023-07-02T02:48:07;99281.34;;;18.83;94.02
33506;BME280;19843;51.040;13.782;2023-07-02T02:50:35;99283.72;;;18.88;94.61
33506;BME280;19843;51.040;13.782;2023-07-02T02:53:04;99289.97;;;18.73;95.33
33506;BME280;19843;51.040;13.782;2023-07-02T02:55:32;99289.41;;;18.51;96.02
33506;BME280;19843;51.040;13.782;2023-07-02T02:57:59;99290.34;;;18.75;94.88
33506;BME280;19843;51.040;13.782;2023-07-02T03:00:27;99295.44;;;18.87;94.44
33506;BME280;19843;51.040;13.782;2023-07-02T03:02:54;99282.69;;;19.33;92.30
33506;BME280;19843;51.040;13.782;2023-07-02T03:05:23;99287.59;;;18.67;94.05
33506;BME280;19843;51.040;13.782;2023-07-02T03:07:51;99286.28;;;18.41;95.66
33506;BME280;19843;51.040;13.782;2023-07-02T03:10:18;99291.66;;;18.66;94.85
33506;BME280;19843;51.040;13.782;2023-07-02T03:12:47;99289.38;;;18.54;95.67
33506;BME280;19843;51.040;13.782;2023-07-02T03:15:14;99290.88;;;18.97;93.16
33506;BME280;19843;51.040;13.782;2023-07-02T03:17:43;99285.59;;;18.99;92.53
33506;BME280;19843;51.040;13.782;2023-07-02T03:20:11;99296.72;;;18.82;92.64
33506;BME280;19843;51.040;13.782;2023-07-02T03:22:40;99294.63;;;18.90;92.48
33506;BME280;19843;51.040;13.782;2023-07-02T03:25:08;99294.91;;;18.99;91.76
33506;BME280;19843;51.040;13.782;2023-07-02T03:27:36;99293.00;;;19.19;90.50
33506;BME280;19843;51.040;13.782;2023-07-02T03:30:04;99296.31;;;19.14;90.57
33506;BME280;19843;51.040;13.782;2023-07-02T03:32:32;99301.25;;;19.07;90.90
33506;BME280;19843;51.040;13.782;2023-07-02T03:34:59;99292.41;;;19.32;89.32
33506;BME280;19843;51.040;13.782;2023-07-02T03:37:27;99303.03;;;18.59;92.55
33506;BME280;19843;51.040;13.782;2023-07-02T03:39:56;99286.75;;;19.05;90.74
33506;BME280;19843;51.040;13.782;2023-07-02T03:42:25;99300.97;;;18.98;90.44
33506;BME280;19843;51.040;13.782;2023-07-02T03:44:52;99304.47;;;19.09;90.37
33506;BME280;19843;51.040;13.782;2023-07-02T03:47:19;99305.53;;;18.88;91.01
33506;BME280;19843;51.040;13.782;2023-07-02T03:49:47;99307.78;;;18.70;91.36
33506;BME280;19843;51.040;13.782;2023-07-02T03:52:15;99315.94;;;18.60;94.86
33506;BME280;19843;51.040;13.782;2023-07-02T03:54:42;99310.34;;;18.57;97.21
33506;BME280;19843;51.040;13.782;2023-07-02T03:57:11;99311.44;;;18.66;98.85
33506;BME280;19843;51.040;13.782;2023-07-02T03:59:39;99323.91;;;18.73;99.64
33506;BME280;19843;51.040;13.782;2023-07-02T04:02:06;99335.19;;;18.35;100.00
33506;BME280;19843;51.040;13.782;2023-07-02T04:04:34;99333.84;;;18.47;100.00
33506;BME280;19843;51.040;13.782;2023-07-02T04:07:01;99339.41;;;18.16;100.00
33506;BME280;19843;51.040;13.782;2023-07-02T04:09:29;99344.09;;;18.33;100.00
33506;BME280;19843;51.040;13.782;2023-07-02T04:11:59;99341.28;;;18.33;100.00
33506;BME280;19843;51.040;13.782;2023-07-02T04:14:28;99339.72;;;18.63;100.00
33506;BME280;19843;51.040;13.782;2023-07-02T04:16:55;99350.22;;;18.25;100.00
33506;BME280;19843;51.040;13.782;2023-07-02T04:19:23;99354.63;;;18.29;100.00
33506;BME280;19843;51.040;13.782;2023-07-02T04:21:51;99352.75;;;18.12;100.00
33506;BME280;19843;51.040;13.782;2023-07-02T04:24:18;99360.91;;;17.99;100.00
33506;BME280;19843;51.040;13.782;2023-07-02T04:26:48;99359.13;;;18.23;100.00
33506;BME280;19843;51.040;13.782;2023-07-02T04:29:37;99376.22;;;18.05;100.00
33506;BME280;19843;51.040;13.782;2023-07-02T04:32:05;99364.34;;;18.25;100.00
33506;BME280;19843;51.040;13.782;2023-07-02T04:34:33;99363.16;;;18.63;100.00
33506;BME280;19843;51.040;13.782;2023-07-02T04:37:03;99380.38;;;18.35;100.00
33506;BME280;19843;51.040;13.782;2023-07-02T04:39:30;99390.59;;;18.22;97.80
33506;BME280;19843;51.040;13.782;2023-07-02T04:41:58;99386.03;;;18.35;97.25
33506;BME280;19843;51.040;13.782;2023-07-02T04:44:25;99386.81;;;18.39;98.47
33506;BME280;19843;51.040;13.782;2023-07-02T04:46:57;99390.72;;;18.52;98.12
33506;BME280;19843;51.040;13.782;2023-07-02T04:49:25;99389.00;;;18.17;100.00
33506;BME280;19843;51.040;13.782;2023-07-02T04:51:53;99393.03;;;18.61;98.17
33506;BME280;19843;51.040;13.782;2023-07-02T04:54:20;99395.03;;;18.64;99.80
33506;BME280;19843;51.040;13.782;2023-07-02T04:56:48;99396.94;;;18.78;97.14
33506;BME280;19843;51.040;13.782;2023-07-02T04:59:16;99403.31;;;18.85;98.86
33506;BME280;19843;51.040;13.782;2023-07-02T05:01:44;99400.84;;;18.91;98.66
33506;BME280;19843;51.040;13.782;2023-07-02T05:04:13;99391.50;;;18.94;97.38
33506;BME280;19843;51.040;13.782;2023-07-02T05:06:41;99396.97;;;18.74;96.87
33506;BME280;19843;51.040;13.782;2023-07-02T05:09:08;99400.84;;;18.05;100.00
33506;BME280;19843;51.040;13.782;2023-07-02T05:11:36;99399.03;;;17.77;100.00
33506;BME280;19843;51.040;13.782;2023-07-02T05:14:03;99407.13;;;17.67;100.00
33506;BME280;19843;51.040;13.782;2023-07-02T05:16:31;99417.63;;;17.60;100.00
33506;BME280;19843;51.040;13.782;2023-07-02T05:18:58;99409.47;;;17.80;100.00
33506;BME280;19843;51.040;13.782;2023-07-02T05:21:27;99417.25;;;17.61;100.00
33506;BME280;19843;51.040;13.782;2023-07-02T05:23:54;99421.66;;;17.66;100.00
33506;BME280;19843;51.040;13.782;2023-07-02T05:26:22;99432.25;;;18.10;100.00
33506;BME280;19843;51.040;13.782;2023-07-02T05:28:49;99429.63;;;18.37;99.43
33506;BME280;19843;51.040;13.782;2023-07-02T05:31:17;99421.75;;;18.56;98.78
33506;BME280;19843;51.040;13.782;2023-07-02T05:33:45;99428.06;;;18.74;97.49
33506;BME280;19843;51.040;13.782;2023-07-02T05:36:12;99429.25;;;18.77;95.91
33506;BME280;19843;51.040;13.782;2023-07-02T05:38:41;99432.63;;;18.99;97.26
33506;BME280;19843;51.040;13.782;2023-07-02T05:41:09;99438.19;;;18.68;100.00
33506;BME280;19843;51.040;13.782;2023-07-02T05:43:36;99439.53;;;18.56;100.00
33506;BME280;19843;51.040;13.782;2023-07-02T05:46:03;99441.97;;;18.99;100.00
33506;BME280;19843;51.040;13.782;2023-07-02T05:48:31;99442.66;;;19.07;99.85
33506;BME280;19843;51.040;13.782;2023-07-02T05:50:58;99446.53;;;19.54;97.27
33506;BME280;19843;51.040;13.782;2023-07-02T05:53:26;99448.34;;;19.03;99.88
33506;BME280;19843;51.040;13.782;2023-07-02T05:55:55;99454.19;;;19.57;99.56
33506;BME280;19843;51.040;13.782;2023-07-02T05:58:22;99460.59;;;18.93;97.83
33506;BME280;19843;51.040;13.782;2023-07-02T06:01:04;99461.66;;;18.68;99.43
33506;BME280;19843;51.040;13.782;2023-07-02T06:03:32;99456.91;;;19.00;100.00
33506;BME280;19843;51.040;13.782;2023-07-02T06:06:00;99468.38;;;19.19;94.26
33506;BME280;19843;51.040;13.782;2023-07-02T06:08:27;99463.97;;;19.18;97.82
33506;BME280;19843;51.040;13.782;2023-07-02T06:10:56;99463.09;;;18.84;94.56
33506;BME280;19843;51.040;13.782;2023-07-02T06:13:23;99463.03;;;19.29;94.33
33506;BME280;19843;51.040;13.782;2023-07-02T06:15:51;99468.69;;;19.63;90.97
33506;BME280;19843;51.040;13.782;2023-07-02T06:18:18;99464.06;;;19.08;94.13
33506;BME280;19843;51.040;13.782;2023-07-02T06:20:46;99472.44;;;19.53;90.27
33506;BME280;19843;51.040;13.782;2023-07-02T06:23:14;99455.44;;;19.83;87.53
33506;BME280;19843;51.040;13.782;2023-07-02T06:25:42;99473.75;;;19.10;88.16
33506;BME280;19843;51.040;13.782;2023-07-02T06:28:11;99473.34;;;19.08;90.49
33506;BME280;19843;51.040;13.782;2023-07-02T06:30:38;99466.09;;;19.07;91.78
33506;BME280;19843;51.040;13.782;2023-07-02T06:33:06;99470.25;;;19.67;88.00
33506;BME280;19843;51.040;13.782;2023-07-02T06:35:33;99455.41;;;19.87;86.13
33506;BME280;19843;51.040;13.782;2023-07-02T06:38:01;99463.81;;;19.94;85.95
33506;BME280;19843;51.040;13.782;2023-07-02T06:40:28;99465.88;;;19.90;84.78
33506;BME280;19843;51.040;13.782;2023-07-02T06:42:56;99482.94;;;19.52;86.77
33506;BME280;19843;51.040;13.782;2023-07-02T06:45:25;99481.75;;;18.78;90.55
33506;BME280;19843;51.040;13.782;2023-07-02T06:47:52;99483.44;;;19.09;90.06
33506;BME280;19843;51.040;13.782;2023-07-02T06:50:20;99491.34;;;19.59;88.84
33506;BME280;19843;51.040;13.782;2023-07-02T06:52:48;99491.00;;;19.54;89.47
33506;BME280;19843;51.040;13.782;2023-07-02T06:55:15;99479.91;;;18.98;88.72
33506;BME280;19843;51.040;13.782;2023-07-02T06:57:43;99488.00;;;19.00;89.23
33506;BME280;19843;51.040;13.782;2023-07-02T07:00:12;99485.16;;;19.72;83.48
33506;BME280;19843;51.040;13.782;2023-07-02T07:02:42;99488.50;;;19.63;83.71
33506;BME280;19843;51.040;13.782;2023-07-02T07:05:11;99476.47;;;20.36;81.10
33506;BME280;19843;51.040;13.782;2023-07-02T07:07:39;99465.81;;;20.48;80.19
33506;BME280;19843;51.040;13.782;2023-07-02T07:10:07;99475.31;;;20.61;77.75
33506;BME280;19843;51.040;13.782;2023-07-02T07:12:35;99484.88;;;19.59;78.39
33506;BME280;19843;51.040;13.782;2023-07-02T07:15:03;99474.25;;;19.97;77.98
33506;BME280;19843;51.040;13.782;2023-07-02T07:17:31;99472.31;;;20.44;76.51
33506;BME280;19843;51.040;13.782;2023-07-02T07:20:02;99475.25;;;20.64;78.78
33506;BME280;19843;51.040;13.782;2023-07-02T07:22:33;99478.25;;;21.01;74.80
33506;BME280;19843;51.040;13.782;2023-07-02T07:25:01;99474.13;;;20.58;72.77
33506;BME280;19843;51.040;13.782;2023-07-02T07:27:30;99472.75;;;21.73;69.68
33506;BME280;19843;51.040;13.782;2023-07-02T07:29:57;99472.06;;;21.26;71.66
33506;BME280;19843;51.040;13.782;2023-07-02T07:32:24;99472.91;;;20.59;72.28
33506;BME280;19843;51.040;13.782;2023-07-02T07:34:52;99468.34;;;20.65;73.24
33506;BME280;19843;51.040;13.782;2023-07-02T07:37:21;99474.66;;;19.99;73.34
33506;BME280;19843;51.040;13.782;2023-07-02T07:39:48;99462.81;;;20.31;73.61
33506;BME280;19843;51.040;13.782;2023-07-02T07:42:16;99466.31;;;20.89;71.80
33506;BME280;19843;51.040;13.782;2023-07-02T07:44:44;99471.88;;;20.93;72.04
33506;BME280;19843;51.040;13.782;2023-07-02T07:47:12;99473.97;;;20.18;71.54
33506;BME280;19843;51.040;13.782;2023-07-02T07:49:42;99477.75;;;21.26;70.20
33506;BME280;19843;51.040;13.782;2023-07-02T07:52:09;99473.63;;;21.50;67.73
33506;BME280;19843;51.040;13.782;2023-07-02T07:54:38;99463.44;;;22.74;64.13
33506;BME280;19843;51.040;13.782;2023-07-02T07:57:06;99479.66;;;22.08;64.84
33506;BME280;19843;51.040;13.782;2023-07-02T07:59:34;99474.22;;;21.61;63.78
33506;BME280;19843;51.040;13.782;2023-07-02T08:02:01;99466.78;;;21.67;64.23
33506;BME280;19843;51.040;13.782;2023-07-02T08:04:29;99464.16;;;22.13;62.22
33506;BME280;19843;51.040;13.782;2023-07-02T08:06:57;99457.25;;;23.66;57.67
33506;BME280;19843;51.040;13.782;2023-07-02T08:09:24;99458.28;;;22.85;58.94
33506;BME280;19843;51.040;13.782;2023-07-02T08:11:53;99468.25;;;22.44;60.38
33506;BME280;19843;51.040;13.782;2023-07-02T08:14:22;99478.50;;;21.69;62.30
33506;BME280;19843;51.040;13.782;2023-07-02T08:16:50;99467.53;;;22.24;59.67
33506;BME280;19843;51.040;13.782;2023-07-02T08:19:18;99463.38;;;22.29;56.35
33506;BME280;19843;51.040;13.782;2023-07-02T08:21:46;99466.22;;;22.94;55.80
33506;BME280;19843;51.040;13.782;2023-07-02T08:24:14;99464.22;;;23.65;55.02
33506;BME280;19843;51.040;13.782;2023-07-02T08:26:41;99467.94;;;21.50;59.27
33506;BME280;19843;51.040;13.782;2023-07-02T08:29:12;99460.69;;;22.21;58.89
33506;BME280;19843;51.040;13.782;2023-07-02T08:31:40;99461.13;;;22.85;57.23
33506;BME280;19843;51.040;13.782;2023-07-02T08:34:07;99470.47;;;23.73;55.25
33506;BME280;19843;51.040;13.782;2023-07-02T08:36:35;99474.34;;;24.81;53.31
33506;BME280;19843;51.040;13.782;2023-07-02T08:39:03;99467.53;;;22.24;55.40
33506;BME280;19843;51.040;13.782;2023-07-02T08:41:30;99471.22;;;23.19;56.28
33506;BME280;19843;51.040;13.782;2023-07-02T08:44:08;99479.88;;;24.24;52.05
33506;BME280;19843;51.040;13.782;2023-07-02T08:46:38;99478.97;;;24.53;52.73
33506;BME280;19843;51.040;13.782;2023-07-02T08:49:06;99485.69;;;22.63;54.91
33506;BME280;19843;51.040;13.782;2023-07-02T08:51:34;99484.91;;;23.24;53.08
33506;BME280;19843;51.040;13.782;2023-07-02T08:54:02;99479.97;;;23.41;51.53
33506;BME280;19843;51.040;13.782;2023-07-02T08:56:29;99488.59;;;23.66;49.50
33506;BME280;19843;51.040;13.782;2023-07-02T08:58:57;99482.28;;;23.30;49.43
33506;BME280;19843;51.040;13.782;2023-07-02T09:01:24;99480.88;;;24.31;50.07
33506;BME280;19843;51.040;13.782;2023-07-02T09:03:58;99479.41;;;23.59;48.29
33506;BME280;19843;51.040;13.782;2023-07-02T09:06:26;99482.72;;;23.57;48.33
33506;BME280;19843;51.040;13.782;2023-07-02T09:09:03;99478.06;;;23.63;46.55
33506;BME280;19843;51.040;13.782;2023-07-02T09:11:30;99485.53;;;23.86;47.37
33506;BME280;19843;51.040;13.782;2023-07-02T09:13:58;99479.19;;;24.20;46.23
33506;BME280;19843;51.040;13.782;2023-07-02T09:16:28;99486.25;;;24.28;45.07
33506;BME280;19843;51.040;13.782;2023-07-02T09:19:00;99486.47;;;24.34;43.71
33506;BME280;19843;51.040;13.782;2023-07-02T09:21:37;99489.97;;;23.74;46.52
33506;BME280;19843;51.040;13.782;2023-07-02T09:24:12;99487.06;;;24.04;44.16
33506;BME280;19843;51.040;13.782;2023-07-02T09:26:42;99494.88;;;23.87;44.35
33506;BME280;19843;51.040;13.782;2023-07-02T09:29:09;99482.72;;;23.57;43.96
33506;BME280;19843;51.040;13.782;2023-07-02T09:31:44;99495.13;;;23.92;46.00
33506;BME280;19843;51.040;13.782;2023-07-02T09:34:35;99498.06;;;23.76;44.82
33506;BME280;19843;51.040;13.782;2023-07-02T09:37:04;99498.44;;;23.91;43.93
33506;BME280;19843;51.040;13.782;2023-07-02T09:39:33;99492.84;;;23.58;45.40
33506;BME280;19843;51.040;13.782;2023-07-02T09:42:02;99484.31;;;24.13;45.08
33506;BME280;19843;51.040;13.782;2023-07-02T09:44:31;99490.47;;;24.62;47.06
33506;BME280;19843;51.040;13.782;2023-07-02T09:47:01;99488.44;;;25.10;42.19
33506;BME280;19843;51.040;13.782;2023-07-02T09:49:32;99476.03;;;24.91;44.33
33506;BME280;19843;51.040;13.782;2023-07-02T09:52:03;99488.72;;;24.77;43.50
33506;BME280;19843;51.040;13.782;2023-07-02T09:54:31;99497.75;;;22.99;44.92
33506;BME280;19843;51.040;13.782;2023-07-02T09:57:00;99499.44;;;23.13;46.33
33506;BME280;19843;51.040;13.782;2023-07-02T09:59:28;99493.97;;;23.64;46.28
33506;BME280;19843;51.040;13.782;2023-07-02T10:01:56;99498.34;;;24.07;45.37
33506;BME280;19843;51.040;13.782;2023-07-02T10:04:24;99494.25;;;24.34;45.68
33506;BME280;19843;51.040;13.782;2023-07-02T10:06:53;99497.03;;;23.41;45.16
33506;BME280;19843;51.040;13.782;2023-07-02T10:09:35;99487.84;;;23.79;46.21
33506;BME280;19843;51.040;13.782;2023-07-02T10:12:15;99483.91;;;24.87;45.29
33506;BME280;19843;51.040;13.782;2023-07-02T10:14:43;99488.06;;;26.49;43.52
33506;BME280;19843;51.040;13.782;2023-07-02T10:17:23;99484.88;;;26.07;45.34
33506;BME280;19843;51.040;13.782;2023-07-02T10:19:51;99494.81;;;25.14;42.34
33506;BME280;19843;51.040;13.782;2023-07-02T10:22:19;99484.50;;;25.51;43.20
33506;BME280;19843;51.040;13.782;2023-07-02T10:24:54;99489.41;;;25.95;43.26
33506;BME280;19843;51.040;13.782;2023-07-02T10:27:34;99481.44;;;24.76;43.84
33506;BME280;19843;51.040;13.782;2023-07-02T10:30:02;99485.59;;;24.37;44.44
33506;BME280;19843;51.040;13.782;2023-07-02T10:32:32;99482.44;;;24.83;46.05
33506;BME280;19843;51.040;13.782;2023-07-02T10:35:00;99500.97;;;23.60;46.97
33506;BME280;19843;51.040;13.782;2023-07-02T10:37:35;99490.09;;;24.73;45.29
33506;BME280;19843;51.040;13.782;2023-07-02T10:40:08;99489.47;;;25.03;41.89
33506;BME280;19843;51.040;13.782;2023-07-02T10:42:46;99489.31;;;24.72;42.76
33506;BME280;19843;51.040;13.782;2023-07-02T10:45:14;99496.13;;;23.73;44.83
33506;BME280;19843;51.040;13.782;2023-07-02T10:47:42;99496.63;;;23.26;44.90
33506;BME280;19843;51.040;13.782;2023-07-02T10:50:16;99495.59;;;24.67;43.49
33506;BME280;19843;51.040;13.782;2023-07-02T10:52:44;99486.63;;;24.56;43.79
33506;BME280;19843;51.040;13.782;2023-07-02T10:55:17;99484.31;;;25.11;42.54
33506;BME280;19843;51.040;13.782;2023-07-02T10:57:45;99481.31;;;25.27;43.36
33506;BME280;19843;51.040;13.782;2023-07-02T11:00:14;99485.28;;;25.52;42.29
33506;BME280;19843;51.040;13.782;2023-07-02T11:02:44;99483.31;;;24.45;43.28
33506;BME280;19843;51.040;13.782;2023-07-02T11:05:11;99477.38;;;25.56;42.64
33506;BME280;19843;51.040;13.782;2023-07-02T11:07:42;99466.63;;;26.13;42.37
33506;BME280;19843;51.040;13.782;2023-07-02T11:10:19;99470.22;;;24.82;43.20
33506;BME280;19843;51.040;13.782;2023-07-02T11:12:46;99473.53;;;25.28;43.14
33506;BME280;19843;51.040;13.782;2023-07-02T11:15:15;99480.91;;;24.56;43.68
33506;BME280;19843;51.040;13.782;2023-07-02T11:17:45;99476.09;;;25.13;42.84
33506;BME280;19843;51.040;13.782;2023-07-02T11:20:13;99467.06;;;25.15;42.44
33506;BME280;19843;51.040;13.782;2023-07-02T11:22:41;99483.13;;;24.87;41.67
33506;BME280;19843;51.040;13.782;2023-07-02T11:25:12;99474.56;;;26.49;40.84
33506;BME280;19843;51.040;13.782;2023-07-02T11:27:43;99484.66;;;26.01;41.38
33506;BME280;19843;51.040;13.782;2023-07-02T11:30:12;99473.31;;;25.66;40.70
33506;BME280;19843;51.040;13.782;2023-07-02T11:32:50;99469.59;;;25.57;40.89
33506;BME280;19843;51.040;13.782;2023-07-02T11:35:19;99481.97;;;25.53;39.36
33506;BME280;19843;51.040;13.782;2023-07-02T11:37:47;99453.78;;;25.65;40.67
33506;BME280;19843;51.040;13.782;2023-07-02T11:40:17;99475.66;;;25.37;40.46
33506;BME280;19843;51.040;13.782;2023-07-02T11:42:46;99482.03;;;25.85;40.42
33506;BME280;19843;51.040;13.782;2023-07-02T11:45:13;99469.69;;;26.28;41.33
33506;BME280;19843;51.040;13.782;2023-07-02T11:47:41;99468.34;;;25.58;39.82
33506;BME280;19843;51.040;13.782;2023-07-02T11:50:10;99463.44;;;25.80;40.66
33506;BME280;19843;51.040;13.782;2023-07-02T11:52:51;99465.22;;;25.65;42.27
33506;BME280;19843;51.040;13.782;2023-07-02T11:55:19;99481.44;;;24.64;42.55
33506;BME280;19843;51.040;13.782;2023-07-02T11:57:47;99482.31;;;24.86;41.37
33506;BME280;19843;51.040;13.782;2023-07-02T12:00:16;99478.97;;;25.57;43.99
33506;BME280;19843;51.040;13.782;2023-07-02T12:02:44;99485.81;;;25.03;41.58
33506;BME280;19843;51.040;13.782;2023-07-02T12:05:11;99503.66;;;25.07;42.40
33506;BME280;19843;51.040;13.782;2023-07-02T12:07:39;99496.41;;;25.50;43.18
33506;BME280;19843;51.040;13.782;2023-07-02T12:10:07;99497.69;;;25.01;43.55
33506;BME280;19843;51.040;13.782;2023-07-02T12:12:35;99489.81;;;25.40;43.95
33506;BME280;19843;51.040;13.782;2023-07-02T12:15:05;99497.13;;;25.41;42.02
33506;BME280;19843;51.040;13.782;2023-07-02T12:17:33;99500.22;;;24.99;42.36
33506;BME280;19843;51.040;13.782;2023-07-02T12:20:01;99488.81;;;25.34;42.87
33506;BME280;19843;51.040;13.782;2023-07-02T12:22:29;99481.22;;;25.18;40.51
33506;BME280;19843;51.040;13.782;2023-07-02T12:24:56;99487.03;;;25.93;39.22
33506;BME280;19843;51.040;13.782;2023-07-02T12:27:24;99482.50;;;25.04;39.24
33506;BME280;19843;51.040;13.782;2023-07-02T12:29:55;99475.25;;;25.69;40.03
33506;BME280;19843;51.040;13.782;2023-07-02T12:32:24;99475.81;;;26.48;39.92
33506;BME280;19843;51.040;13.782;2023-07-02T12:34:51;99477.13;;;26.57;39.71
33506;BME280;19843;51.040;13.782;2023-07-02T12:37:19;99491.56;;;26.53;40.90
33506;BME280;19843;51.040;13.782;2023-07-02T12:39:47;99490.84;;;25.99;41.16
33506;BME280;19843;51.040;13.782;2023-07-02T12:42:14;99483.75;;;25.03;43.15
33506;BME280;19843;51.040;13.782;2023-07-02T12:44:42;99490.38;;;24.66;44.59
33506;BME280;19843;51.040;13.782;2023-07-02T12:47:09;99496.88;;;24.66;45.27
33506;BME280;19843;51.040;13.782;2023-07-02T12:49:38;99496.97;;;26.20;41.74
33506;BME280;19843;51.040;13.782;2023-07-02T12:52:06;99492.72;;;25.27;40.79
33506;BME280;19843;51.040;13.782;2023-07-02T12:54:33;99495.19;;;26.44;41.01
33506;BME280;19843;51.040;13.782;2023-07-02T12:57:01;99504.97;;;25.50;41.26
33506;BME280;19843;51.040;13.782;2023-07-02T12:59:28;99511.53;;;25.03;43.16